Time;durP1;ratioP1;P1;durP2;ratioP2;P2;SDS_P1;SDS_P2;PMS_P1;PMS_P2;Temp;Humidity;BMP_temperature;BMP_pressure;BME280_temperature;BME280_humidity;BME280_pressure;Samples;Min_cycle;Max_cycle;Signal;HPM_P1;HPM_P2
2021/12/08 00:00:20;;;;;;;6.93;4.18;;;;;;;-1.27;78.96;94478.28;4843430;29;20057;-41
2021/12/08 00:02:48;;;;;;;7.03;3.92;;;;;;;-1.60;79.94;94474.84;4832989;29;20152;-41
2021/12/08 00:05:18;;;;;;;6.75;3.83;;;;;;;-1.53;79.69;94463.88;4842395;29;20531;-41
2021/12/08 00:07:46;;;;;;;7.85;4.30;;;;;;;-1.41;79.59;94464.19;4842134;29;20085;-42
2021/12/08 00:15:31;;;;;;;7.88;4.28;;;;;;;-1.36;79.42;94447.41;4840308;29;20492;-40
2021/12/08 00:18:00;;;;;;;7.22;4.20;;;;;;;-1.33;79.08;94449.44;4842115;29;20472;-40
2021/12/08 00:20:30;;;;;;;6.45;3.90;;;;;;;-1.35;79.38;94433.06;4842359;29;20124;-40
2021/12/08 00:22:58;;;;;;;6.72;4.10;;;;;;;-1.18;78.73;94441.22;4842725;29;20058;-41
2021/12/08 00:25:25;;;;;;;9.07;4.30;;;;;;;-1.30;78.99;94436.41;4829404;29;20382;-40
2021/12/08 00:27:53;;;;;;;6.00;4.07;;;;;;;-1.42;79.65;94420.97;4842927;29;20058;-41
2021/12/08 00:30:20;;;;;;;6.55;4.15;;;;;;;-1.30;79.15;94414.38;4842418;29;20064;-41
2021/12/08 00:32:48;;;;;;;5.75;3.97;;;;;;;-1.37;79.03;94398.84;4842114;29;20137;-41
2021/12/08 00:35:15;;;;;;;7.00;4.20;;;;;;;-1.27;79.19;94401.34;4843264;29;20125;-41
2021/12/08 00:37:42;;;;;;;6.30;4.20;;;;;;;-1.25;79.14;94401.81;4844376;29;20145;-41
2021/12/08 00:40:14;;;;;;;7.70;4.03;;;;;;;-1.29;78.96;94398.19;4840172;29;20125;-41
2021/12/08 00:42:42;;;;;;;7.20;4.50;;;;;;;-1.38;79.89;94393.84;4824670;29;20142;-41
2021/12/08 00:45:12;;;;;;;7.60;4.60;;;;;;;-1.65;80.36;94382.94;4842341;29;20054;-41
2021/12/08 00:47:39;;;;;;;6.90;4.40;;;;;;;-1.96;81.54;94371.28;4824843;29;20150;-41
2021/12/08 00:50:09;;;;;;;8.32;4.72;;;;;;;-1.62;80.57;94388.72;4842508;29;20519;-40
2021/12/08 00:52:36;;;;;;;7.15;4.10;;;;;;;-1.44;80.14;94382.53;4843566;29;20519;-41
2021/12/08 00:55:06;;;;;;;9.38;4.50;;;;;;;-1.52;79.91;94383.25;4841541;29;20110;-41
2021/12/08 00:57:34;;;;;;;6.65;3.75;;;;;;;-1.63;80.46;94381.84;4844569;29;20072;-40
2021/12/08 01:00:06;;;;;;;6.90;4.07;;;;;;;-1.62;80.64;94380.78;4843340;29;20156;-40
2021/12/08 01:02:38;;;;;;;6.97;3.75;;;;;;;-1.76;81.08;94381.50;4845605;29;20050;-42
2021/12/08 01:05:16;;;;;;;6.95;4.00;;;;;;;-1.61;80.60;94382.34;4846139;29;20118;-43
2021/12/08 01:07:43;;;;;;;5.97;3.60;;;;;;;-1.53;80.42;94373.69;4847182;29;20476;-41
2021/12/08 01:10:16;;;;;;;7.55;3.92;;;;;;;-1.41;79.84;94374.00;4846345;29;20072;-41
2021/12/08 01:13:00;;;;;;;6.93;3.80;;;;;;;-1.35;79.42;94378.13;4835682;29;20058;-41
2021/12/08 01:15:28;;;;;;;6.57;3.90;;;;;;;-1.45;80.08;94380.97;4844677;29;20456;-42
2021/12/08 01:17:55;;;;;;;6.43;3.75;;;;;;;-1.35;79.59;94377.34;4834535;29;20069;-41
2021/12/08 01:20:23;;;;;;;4.93;3.22;;;;;;;-1.50;80.01;94373.88;4841733;29;20080;-41
2021/12/08 01:22:50;;;;;;;5.32;3.40;;;;;;;-1.38;79.60;94370.75;4846887;29;20140;-42
2021/12/08 01:25:17;;;;;;;7.78;3.67;;;;;;;-1.70;81.34;94376.91;4846352;29;20128;-40
2021/12/08 01:27:44;;;;;;;7.40;3.63;;;;;;;-1.31;79.74;94368.50;4832866;29;20142;-41
2021/12/08 01:30:12;;;;;;;6.82;3.70;;;;;;;-1.19;79.20;94374.09;4842648;29;20080;-40
2021/12/08 01:32:39;;;;;;;8.07;3.70;;;;;;;-1.28;79.24;94373.22;4844467;29;20461;-41
2021/12/08 01:35:08;;;;;;;5.13;3.17;;;;;;;-1.40;80.43;94364.94;4842958;29;20137;-40
2021/12/08 01:37:35;;;;;;;6.28;3.55;;;;;;;-1.21;79.43;94370.16;4839658;29;20057;-40
2021/12/08 01:40:09;;;;;;;8.18;3.70;;;;;;;-1.37;79.73;94367.00;4842380;29;20085;-40
2021/12/08 01:42:43;;;;;;;6.60;3.83;;;;;;;-1.33;80.05;94367.22;4840935;29;20140;-40
2021/12/08 01:47:59;;;;;;;7.68;4.93;;;;;;;-1.28;79.68;94348.53;4823932;29;20050;-40
2021/12/08 01:50:26;;;;;;;6.15;4.00;;;;;;;-1.42;80.06;94346.69;4825897;29;20134;-40
2021/12/08 01:52:53;;;;;;;8.40;4.40;;;;;;;-1.31;79.52;94339.31;4841938;29;20050;-40
2021/12/08 01:55:20;;;;;;;8.20;3.78;;;;;;;-1.28;79.54;94343.25;4833175;29;20088;-41
2021/12/08 01:57:48;;;;;;;6.65;3.70;;;;;;;-1.37;79.94;94345.00;4840670;29;20073;-41
2021/12/08 02:00:24;;;;;;;6.65;3.65;;;;;;;-1.31;79.54;94349.13;4841619;29;20046;-40
2021/12/08 02:02:57;;;;;;;7.68;4.78;;;;;;;-1.48;79.84;94352.38;4840741;29;20046;-40
2021/12/08 02:05:26;;;;;;;5.65;3.38;;;;;;;-2.26;84.44;94346.88;4841017;29;20073;-40
2021/12/08 02:07:54;;;;;;;8.38;4.22;;;;;;;-1.72;81.51;94345.41;4823502;29;20066;-40
2021/12/08 02:10:22;;;;;;;6.47;4.00;;;;;;;-1.39;80.15;94336.56;4824357;29;20047;-40
2021/12/08 02:12:49;;;;;;;6.57;3.78;;;;;;;-1.43;79.64;94329.22;4840508;29;20133;-41
2021/12/08 02:15:18;;;;;;;6.35;3.28;;;;;;;-1.45;79.62;94335.88;4841485;29;20094;-39
2021/12/08 02:17:48;;;;;;;6.53;2.92;;;;;;;-1.28;78.89;94329.97;4824116;29;20145;-39
2021/12/08 02:20:16;;;;;;;5.82;3.33;;;;;;;-1.31;78.84;94336.66;4824102;29;20503;-39
2021/12/08 02:22:43;;;;;;;6.90;3.42;;;;;;;-1.24;78.80;94323.75;4840707;29;20140;-41
2021/12/08 02:25:14;;;;;;;6.18;3.47;;;;;;;-1.27;79.17;94326.22;4840314;29;20485;-40
2021/12/08 02:27:42;;;;;;;7.93;3.38;;;;;;;-1.15;78.30;94328.38;4841204;29;20050;-40
2021/12/08 02:30:48;;;;;;;4.80;3.10;;;;;;;-1.13;78.62;94331.53;4842298;29;20049;-42
2021/12/08 02:49:44;;;;;;;5.85;3.25;;;;;;;-1.14;77.75;94322.00;4823493;29;20129;-43
2021/12/08 02:52:13;;;;;;;6.28;3.58;;;;;;;-1.03;77.22;94326.00;4822647;29;20050;-40
2021/12/08 02:54:46;;;;;;;5.28;3.17;;;;;;;-1.05;77.07;94325.50;4836033;29;20389;-40
2021/12/08 02:57:16;;;;;;;5.78;3.25;;;;;;;-1.00;76.66;94328.06;4823322;29;20046;-40
2021/12/08 02:59:46;;;;;;;5.32;3.00;;;;;;;-0.94;76.72;94326.88;4838579;29;20057;-40
2021/12/08 03:02:13;;;;;;;7.35;3.35;;;;;;;-0.95;76.91;94330.59;4841247;29;20042;-42
2021/12/08 03:04:40;;;;;;;6.43;3.10;;;;;;;-1.30;77.12;94327.63;4839640;29;20042;-40
2021/12/08 03:07:08;;;;;;;5.63;3.33;;;;;;;-1.08;76.96;94328.75;4840933;29;20132;-40
2021/12/08 03:09:35;;;;;;;5.28;3.20;;;;;;;-1.10;77.20;94325.63;4840963;29;20523;-41
2021/12/08 03:12:03;;;;;;;6.18;3.03;;;;;;;-1.56;77.70;94319.38;4834664;29;20047;-41
2021/12/08 03:14:31;;;;;;;5.47;2.97;;;;;;;-1.10;77.30;94317.69;4837475;29;20349;-40
2021/12/08 03:17:02;;;;;;;4.38;2.60;;;;;;;-1.06;77.06;94319.44;4828897;29;20085;-40
2021/12/08 03:19:30;;;;;;;4.55;2.83;;;;;;;-0.92;77.04;94319.38;4836897;29;20576;-44
2021/12/08 03:21:57;;;;;;;5.75;3.22;;;;;;;-0.87;77.20;94319.28;4842271;29;20050;-42
2021/12/08 03:24:36;;;;;;;4.75;2.90;;;;;;;-0.83;77.23;94306.97;4840819;29;20132;-40
2021/12/08 03:32:07;;;;;;;4.75;3.08;;;;;;;-0.75;76.11;94310.78;4841246;29;20125;-40
2021/12/08 03:34:38;;;;;;;5.55;2.83;;;;;;;-0.66;75.84;94316.16;4838258;29;20046;-40
2021/12/08 03:37:08;;;;;;;4.50;2.83;;;;;;;-0.71;75.45;94315.22;4839481;29;20459;-41
2021/12/08 03:39:38;;;;;;;4.03;2.42;;;;;;;-0.71;75.30;94317.09;4839496;29;20050;-40
2021/12/08 03:42:06;;;;;;;4.07;2.38;;;;;;;-0.89;75.53;94318.00;4836511;29;20046;-43
2021/12/08 03:44:33;;;;;;;4.95;2.38;;;;;;;-0.75;75.59;94318.75;4829755;29;20046;-42
2021/12/08 03:47:04;;;;;;;5.28;2.80;;;;;;;-0.97;75.45;94309.69;4827354;29;20050;-41
2021/12/08 03:49:31;;;;;;;4.32;2.60;;;;;;;-0.96;75.62;94319.19;4822873;29;20129;-42
2021/12/08 03:52:01;;;;;;;5.90;2.92;;;;;;;-0.94;75.45;94321.56;4838817;29;20121;-41
2021/12/08 03:54:29;;;;;;;4.85;2.75;;;;;;;-0.88;75.08;94304.44;4839527;29;20053;-40
2021/12/08 03:56:56;;;;;;;5.18;3.00;;;;;;;-0.89;75.76;94305.53;4827707;29;20050;-40
2021/12/08 03:59:23;;;;;;;4.72;2.92;;;;;;;-0.94;76.04;94303.00;4825141;29;20050;-40
2021/12/08 04:01:50;;;;;;;5.78;2.90;;;;;;;-0.75;75.53;94303.63;4842254;29;20102;-41
2021/12/08 04:04:18;;;;;;;6.07;3.00;;;;;;;-0.62;75.36;94295.88;4842872;29;20195;-42
2021/12/08 04:06:49;;;;;;;4.95;2.55;;;;;;;-0.53;75.57;94299.41;4843723;29;20077;-39
2021/12/08 04:09:29;;;;;;;5.63;2.63;;;;;;;-0.69;75.59;94296.31;4844130;29;20062;-40
2021/12/08 04:11:57;;;;;;;5.47;2.65;;;;;;;-0.85;75.76;94305.69;4843805;29;20122;-40
2021/12/08 04:14:28;;;;;;;5.32;2.78;;;;;;;-1.00;76.06;94307.63;4842101;29;20050;-43
2021/12/08 04:17:01;;;;;;;7.28;2.97;;;;;;;-0.83;75.88;94322.91;4830167;29;20393;-40
2021/12/08 04:19:28;;;;;;;4.78;3.13;;;;;;;-0.69;75.54;94325.53;4824526;29;20149;-41
2021/12/08 04:21:59;;;;;;;4.22;2.70;;;;;;;-0.89;75.69;94318.00;4839284;29;20145;-40
2021/12/08 04:24:26;;;;;;;4.90;2.70;;;;;;;-0.84;75.68;94342.59;4837744;29;20075;-40
2021/12/08 04:27:07;;;;;;;4.78;2.90;;;;;;;-0.86;75.80;94339.44;4841521;29;20121;-43
2021/12/08 04:29:37;;;;;;;4.70;2.90;;;;;;;-0.95;75.68;94341.22;4843718;29;20056;-42
2021/12/08 04:32:05;;;;;;;5.53;2.92;;;;;;;-1.24;74.53;94336.25;4841836;29;20054;-40
2021/12/08 04:34:37;;;;;;;6.43;2.75;;;;;;;-0.99;75.46;94337.59;4843245;29;20069;-41
2021/12/08 04:37:15;;;;;;;7.68;2.70;;;;;;;-0.77;74.74;94337.66;4842784;29;20048;-42
2021/12/08 04:39:54;;;;;;;5.18;2.63;;;;;;;-0.52;74.15;94338.16;4856273;23;20136;-47
2021/12/08 04:42:33;;;;;;;6.53;2.90;;;;;;;-0.86;75.48;94328.81;4842829;29;20071;-44
2021/12/08 04:45:08;;;;;;;5.38;2.97;;;;;;;-0.51;74.69;94339.75;4847585;29;20068;-46
2021/12/08 04:47:47;;;;;;;5.35;2.75;;;;;;;-1.49;76.00;94334.91;4837372;29;20539;-46
2021/12/08 04:53:39;;;;;;;6.03;3.10;;;;;;;-0.67;74.80;94341.94;4826152;29;20419;-45
2021/12/08 05:06:50;;;;;;;7.32;4.00;;;;;;;-0.77;74.64;94360.78;4823537;29;20055;-44
2021/12/08 05:09:25;;;;;;;6.20;3.80;;;;;;;-0.75;74.69;94355.94;4834700;29;20134;-45
2021/12/08 05:12:02;;;;;;;5.82;3.28;;;;;;;-0.86;74.98;94354.59;4842649;29;20132;-45
2021/12/08 05:14:35;;;;;;;5.97;3.63;;;;;;;-0.85;75.03;94350.84;4830674;29;20054;-45
2021/12/08 05:17:08;;;;;;;5.78;3.67;;;;;;;-0.54;74.26;94351.75;4823483;29;20068;-44
2021/12/08 05:19:37;;;;;;;5.68;3.30;;;;;;;-1.46;76.35;94352.88;4826310;29;20513;-48
2021/12/08 05:22:15;;;;;;;7.45;3.80;;;;;;;-1.92;78.88;94361.66;4823807;29;20473;-45
2021/12/08 05:24:46;;;;;;;7.05;3.78;;;;;;;-2.08;79.70;94358.50;4832457;29;20046;-46
2021/12/08 05:27:18;;;;;;;6.20;3.50;;;;;;;-2.17;79.58;94354.94;4841565;29;20057;-45
2021/12/08 05:30:17;;;;;;;8.68;4.20;;;;;;;-1.88;79.59;94349.41;4840615;29;20415;-45
2021/12/08 05:32:45;;;;;;;8.15;3.55;;;;;;;-1.14;76.96;94367.09;4829857;29;20565;-48
2021/12/08 05:35:14;;;;;;;6.82;3.92;;;;;;;-0.61;75.11;94371.84;4837424;29;20645;-47
2021/12/08 05:37:41;;;;;;;6.47;3.53;;;;;;;-0.75;74.82;94382.47;4841639;29;20054;-45
2021/12/08 05:40:13;;;;;;;7.22;4.10;;;;;;;-0.68;74.22;94382.06;4825379;29;20046;-45
2021/12/08 05:42:41;;;;;;;6.85;3.88;;;;;;;-0.87;75.04;94390.19;4823516;29;20057;-46
2021/12/08 05:45:14;;;;;;;8.68;4.25;;;;;;;-0.42;73.87;94385.75;4835862;29;20412;-47
2021/12/08 05:47:45;;;;;;;8.98;4.07;;;;;;;-1.18;76.44;94380.19;4837801;29;20438;-48
2021/12/08 05:50:19;;;;;;;6.90;3.90;;;;;;;-0.38;74.30;94385.94;4841721;29;20086;-49
2021/12/08 05:52:46;;;;;;;6.50;4.00;;;;;;;-0.21;73.69;94377.31;4826712;29;20054;-45
2021/12/08 05:55:13;;;;;;;7.65;4.53;;;;;;;-0.75;74.80;94375.31;4826236;29;20049;-44
2021/12/08 05:57:43;;;;;;;6.35;3.92;;;;;;;-0.77;76.27;94363.44;4841465;29;20411;-46
2021/12/08 06:00:25;;;;;;;6.40;3.83;;;;;;;-0.52;75.21;94370.84;4839867;29;20141;-47
2021/12/08 06:02:52;;;;;;;5.68;3.60;;;;;;;-0.13;74.19;94380.03;4833771;29;20046;-45
2021/12/08 06:05:20;;;;;;;6.18;3.70;;;;;;;-0.14;73.76;94370.47;4837696;29;20397;-45
2021/12/08 06:07:47;;;;;;;6.03;3.70;;;;;;;-0.13;74.02;94377.38;4841213;29;20576;-44
2021/12/08 06:10:19;;;;;;;6.68;3.30;;;;;;;-0.52;75.31;94370.03;4839235;29;20046;-44
2021/12/08 06:12:48;;;;;;;6.85;3.55;;;;;;;-0.13;74.41;94388.00;4823264;29;20054;-45
2021/12/08 06:15:16;;;;;;;7.28;3.65;;;;;;;-0.14;74.47;94381.09;4834996;29;20133;-44
2021/12/08 06:17:44;;;;;;;7.22;4.00;;;;;;;-0.50;74.65;94370.53;4822633;29;20480;-45
2021/12/08 06:20:14;;;;;;;7.75;3.85;;;;;;;-0.17;75.09;94371.09;4824015;29;20051;-45
2021/12/08 06:22:43;;;;;;;6.28;3.38;;;;;;;0.17;73.91;94369.75;4841281;29;20050;-47
2021/12/08 06:25:13;;;;;;;8.95;4.70;;;;;;;-0.97;78.34;94362.78;4826449;29;20062;-45
2021/12/08 06:27:40;;;;;;;6.30;3.50;;;;;;;-0.05;76.41;94373.19;4822996;29;20051;-50
2021/12/08 06:30:11;;;;;;;5.38;3.42;;;;;;;-0.13;75.23;94363.28;4822669;29;20496;-51
2021/12/08 06:32:39;;;;;;;6.70;3.25;;;;;;;-0.58;77.78;94360.63;4839016;29;20042;-43
2021/12/08 06:35:11;;;;;;;7.80;3.75;;;;;;;0.19;74.55;94368.34;4834997;29;20090;-46
2021/12/08 06:37:42;;;;;;;7.30;3.50;;;;;;;-0.55;76.46;94360.81;4833916;29;20030;-46
2021/12/08 06:40:32;;;;;;;7.78;3.92;;;;;;;-0.79;79.01;94361.06;4834004;29;20101;-46
2021/12/08 06:43:03;;;;;;;6.88;4.13;;;;;;;-0.24;76.94;94362.75;4827518;29;20431;-46
2021/12/08 06:45:35;;;;;;;6.45;3.53;;;;;;;-0.13;76.52;94364.09;4829116;29;20133;-51
2021/12/08 06:48:13;;;;;;;8.65;3.95;;;;;;;-0.39;76.28;94363.91;4835589;29;20049;-47
2021/12/08 06:50:47;;;;;;;7.40;3.10;;;;;;;0.01;75.73;94360.56;4827169;29;20042;-44
2021/12/08 06:53:14;;;;;;;7.03;3.42;;;;;;;-0.90;79.13;94348.31;4827652;29;20096;-47
2021/12/08 06:55:49;;;;;;;9.82;3.80;;;;;;;-1.04;80.50;94353.63;4823787;29;20050;-45
2021/12/08 06:58:20;;;;;;;7.38;3.40;;;;;;;-1.05;80.15;94336.13;4830123;29;20058;-47
2021/12/08 07:09:11;;;;;;;8.90;3.50;;;;;;;-0.40;77.83;94330.44;4833643;29;20416;-46
2021/12/08 07:11:39;;;;;;;6.28;2.90;;;;;;;-0.68;77.67;94342.22;4829557;29;20089;-46
2021/12/08 07:14:06;;;;;;;7.57;3.90;;;;;;;-0.81;79.94;94342.00;4822622;29;20049;-47
2021/12/08 07:16:38;;;;;;;7.78;3.60;;;;;;;0.02;77.36;94354.94;4821934;29;20077;-46
2021/12/08 07:19:27;;;;;;;5.68;3.63;;;;;;;0.42;75.11;94362.97;4828824;29;20580;-49
2021/12/08 07:21:57;;;;;;;4.75;3.00;;;;;;;0.65;74.29;94364.50;4833713;29;20211;-45
2021/12/08 07:24:32;;;;;;;7.03;3.08;;;;;;;0.24;74.85;94370.09;4836396;29;20092;-47
2021/12/08 07:27:07;;;;;;;6.53;3.50;;;;;;;0.44;74.89;94374.09;4820594;29;20042;-48
2021/12/08 07:29:39;;;;;;;5.40;2.90;;;;;;;0.61;73.73;94374.16;4832188;29;20119;-52
2021/12/08 07:32:15;;;;;;;5.78;3.08;;;;;;;0.67;74.47;94370.28;4821379;29;20114;-47
2021/12/08 07:34:43;;;;;;;5.97;3.60;;;;;;;0.40;75.57;94367.84;4833000;29;20061;-48
2021/12/08 07:37:15;;;;;;;5.80;3.00;;;;;;;0.73;74.31;94356.84;4822852;29;20111;-46
2021/12/08 07:39:57;;;;;;;9.27;3.15;;;;;;;0.41;76.15;94362.19;4804849;29;1202706;-45
2021/12/08 07:42:39;;;;;;;5.95;3.50;;;;;;;-0.20;78.73;94354.94;4826690;29;20057;-47
2021/12/08 07:45:11;;;;;;;6.30;3.50;;;;;;;-0.35;79.08;94353.47;4827823;29;20508;-48
2021/12/08 07:47:39;;;;;;;7.43;3.15;;;;;;;-0.24;78.98;94355.56;4831858;29;20061;-47
2021/12/08 07:50:09;;;;;;;6.47;3.20;;;;;;;-0.52;77.71;94341.63;4837414;29;20057;-52
2021/12/08 07:52:40;;;;;;;6.95;3.28;;;;;;;-0.44;77.74;94345.41;4830827;29;20102;-46
2021/12/08 07:55:12;;;;;;;7.82;3.22;;;;;;;-0.74;79.49;94346.91;4834173;29;20038;-46
2021/12/08 07:57:39;;;;;;;7.22;2.90;;;;;;;-0.84;80.82;94344.47;4836767;29;20038;-45
2021/12/08 08:00:29;;;;;;;5.13;3.05;;;;;;;-0.25;79.37;94342.59;4837080;29;20050;-45
2021/12/08 08:02:58;;;;;;;5.88;2.80;;;;;;;-0.61;80.30;94342.63;4831711;29;20137;-51
2021/12/08 08:05:29;;;;;;;5.93;2.60;;;;;;;-0.53;79.64;94339.25;4829996;29;20065;-48
2021/12/08 08:07:57;;;;;;;8.27;3.30;;;;;;;-0.20;79.63;94333.69;4831351;29;20037;-47
2021/12/08 08:10:27;;;;;;;6.38;3.13;;;;;;;-0.18;78.75;94337.63;4840910;29;20064;-45
2021/12/08 08:13:00;;;;;;;10.05;4.72;;;;;;;-0.12;80.44;94330.31;4840407;29;20056;-45
2021/12/08 08:15:32;;;;;;;5.82;2.95;;;;;;;-0.17;80.51;94343.72;4848357;29;20046;-47
2021/12/08 08:18:05;;;;;;;10.38;2.97;;;;;;;0.44;78.84;94334.19;4836032;29;20042;-46
2021/12/08 08:20:38;;;;;;;8.48;3.20;;;;;;;0.56;78.09;94323.75;4848425;29;20073;-45
2021/12/08 08:23:05;;;;;;;7.90;3.53;;;;;;;0.23;78.68;94307.34;4831964;29;20224;-47
2021/12/08 08:25:36;;;;;;;7.85;3.20;;;;;;;0.63;76.27;94307.34;4832539;29;20413;-46
2021/12/08 08:28:05;;;;;;;5.68;2.92;;;;;;;0.92;75.54;94291.59;4844583;29;20652;-45
2021/12/08 08:30:43;;;;;;;5.18;2.63;;;;;;;0.30;79.39;94294.41;4840603;29;20049;-49
2021/12/08 08:33:11;;;;;;;8.52;2.85;;;;;;;0.55;77.38;94290.22;4823843;29;20074;-47
2021/12/08 08:35:45;;;;;;;7.00;2.95;;;;;;;1.18;75.52;94282.84;4832372;29;20125;-48
2021/12/08 08:38:21;;;;;;;6.18;3.10;;;;;;;1.05;75.79;94273.91;4823316;29;20061;-46
2021/12/08 08:40:54;;;;;;;6.63;2.90;;;;;;;0.40;78.49;94278.16;4832036;29;20054;-48
2021/12/08 08:43:22;;;;;;;5.75;2.78;;;;;;;0.29;79.83;94268.09;4824987;29;20082;-46
2021/12/08 08:46:04;;;;;;;4.68;2.50;;;;;;;0.06;81.93;94272.69;4833837;29;20488;-49
2021/12/08 08:48:46;;;;;;;5.53;2.58;;;;;;;0.29;82.07;94276.06;4818023;29;20111;-45
2021/12/08 08:51:37;;;;;;;6.43;3.25;;;;;;;1.04;78.73;94267.03;4840638;29;20053;-48
2021/12/08 08:54:10;;;;;;;7.05;3.33;;;;;;;1.17;77.83;94286.63;4835670;29;20137;-50
2021/12/08 08:56:45;;;;;;;8.68;4.20;;;;;;;1.53;76.90;94293.50;4840674;29;20472;-45
2021/12/08 08:59:17;;;;;;;6.10;3.88;;;;;;;1.56;77.10;94293.66;4841020;29;20556;-45
2021/12/08 09:01:48;;;;;;;6.50;3.53;;;;;;;1.79;75.89;94293.47;4843597;29;20063;-49
2021/12/08 09:04:18;;;;;;;7.53;3.40;;;;;;;1.80;75.53;94303.03;4844954;29;20500;-47
2021/12/08 09:06:49;;;;;;;7.38;3.78;;;;;;;1.85;75.44;94297.53;4832032;29;20043;-47
2021/12/08 09:09:26;;;;;;;5.78;2.90;;;;;;;1.14;79.01;94289.91;4829416;29;20050;-51
2021/12/08 09:12:16;;;;;;;6.75;2.97;;;;;;;1.51;77.44;94285.81;4833594;29;20136;-48
2021/12/08 09:15:00;;;;;;;6.55;2.88;;;;;;;1.67;77.18;94272.78;4840947;29;20160;-44
2021/12/08 09:17:43;;;;;;;6.07;3.22;;;;;;;1.66;77.16;94270.41;4842086;29;20188;-48
2021/12/08 09:20:42;;;;;;;6.72;3.97;;;;;;;1.78;76.76;94270.56;4829263;29;20103;-46
2021/12/08 09:23:16;;;;;;;6.65;3.35;;;;;;;1.37;77.92;94271.88;4833657;29;20064;-45
2021/12/08 09:26:00;;;;;;;7.53;3.70;;;;;;;1.73;76.66;94268.84;4822664;29;20509;-49
2021/12/08 09:28:35;;;;;;;9.18;4.10;;;;;;;1.84;76.47;94262.06;4828483;29;20400;-47
2021/12/08 09:31:16;;;;;;;6.85;3.85;;;;;;;1.96;76.42;94268.66;4827140;29;20091;-47
2021/12/08 09:33:51;;;;;;;9.82;4.63;;;;;;;2.09;76.32;94276.44;4841109;29;20062;-47
2021/12/08 09:36:24;;;;;;;7.18;4.15;;;;;;;1.94;76.25;94274.28;4839326;29;20081;-46
2021/12/08 09:39:11;;;;;;;9.90;4.10;;;;;;;1.97;76.50;94281.66;4827070;29;20065;-47
2021/12/08 09:41:47;;;;;;;9.00;4.07;;;;;;;1.92;76.55;94279.19;4837747;29;20496;-47
2021/12/08 09:44:24;;;;;;;7.95;4.53;;;;;;;1.98;76.83;94272.56;4833254;29;20053;-47
2021/12/08 09:46:52;;;;;;;7.43;3.83;;;;;;;1.94;77.02;94270.84;4836261;29;20249;-47
2021/12/08 09:49:25;;;;;;;8.40;3.88;;;;;;;2.04;76.98;94265.94;4847847;29;20045;-46
2021/12/08 09:51:56;;;;;;;7.25;3.90;;;;;;;2.00;77.18;94262.34;4849005;29;20098;-46
2021/12/08 09:54:23;;;;;;;7.30;3.75;;;;;;;2.04;76.81;94254.50;4832835;29;20073;-48
2021/12/08 09:56:52;;;;;;;9.18;3.80;;;;;;;2.08;77.31;94252.75;4831907;29;20048;-46
2021/12/08 09:59:22;;;;;;;5.93;3.65;;;;;;;1.13;80.61;94251.81;4831410;29;20052;-48
2021/12/08 10:01:51;;;;;;;23.80;5.35;;;;;;;1.06;81.41;94248.06;4839494;29;20053;-48
2021/12/08 10:04:19;;;;;;;8.02;4.15;;;;;;;0.41;84.75;94229.16;4830144;29;20434;-47
2021/12/08 10:06:49;;;;;;;7.20;3.92;;;;;;;1.10;83.43;94235.66;4811337;29;20046;-47
2021/12/08 10:09:19;;;;;;;8.23;4.03;;;;;;;1.32;81.74;94232.84;4843384;29;20431;-46
2021/12/08 10:11:47;;;;;;;10.35;4.40;;;;;;;1.84;79.29;94227.41;4829538;29;20134;-47
2021/12/08 10:14:15;;;;;;;10.57;3.97;;;;;;;1.78;79.00;94228.69;4839482;29;20088;-46
2021/12/08 10:16:42;;;;;;;6.03;3.17;;;;;;;2.04;78.26;94211.81;4834039;29;20042;-47
2021/12/08 10:19:17;;;;;;;7.03;3.47;;;;;;;2.09;78.30;94195.66;4832073;29;20051;-46
2021/12/08 10:21:46;;;;;;;7.35;3.92;;;;;;;2.13;77.96;94183.22;4836156;29;20625;-45
2021/12/08 10:24:16;;;;;;;7.78;4.05;;;;;;;1.69;80.00;94182.63;4839869;29;20129;-45
2021/12/08 10:26:44;;;;;;;10.48;4.35;;;;;;;0.92;82.90;94187.75;4833990;29;20559;-47
2021/12/08 10:29:11;;;;;;;7.82;4.05;;;;;;;1.03;83.21;94180.22;4845292;29;20076;-47
2021/12/08 10:31:48;;;;;;;6.57;4.10;;;;;;;1.77;80.49;94178.34;4828452;29;20047;-46
2021/12/08 10:36:49;;;;;;;6.63;4.20;;;;;;;2.11;78.22;94174.75;4827339;29;20457;-47
2021/12/08 10:39:27;;;;;;;8.13;4.25;;;;;;;1.77;78.63;94176.47;4834761;29;20069;-46
2021/12/08 10:42:18;;;;;;;7.40;4.00;;;;;;;2.06;78.01;94194.41;4824953;29;20057;-47
2021/12/08 10:45:23;;;;;;;6.93;3.80;;;;;;;2.13;77.64;94182.44;4833541;29;20049;-47
2021/12/08 10:47:57;;;;;;;8.60;4.70;;;;;;;1.95;77.89;94179.84;4836312;29;20133;-47
2021/12/08 10:56:11;;;;;;;10.63;5.20;;;;;;;2.30;76.02;94182.34;4827066;29;20046;-47
2021/12/08 10:58:43;;;;;;;8.32;5.28;;;;;;;2.22;76.71;94175.97;4837144;29;20056;-48
2021/12/08 11:01:16;;;;;;;11.77;4.95;;;;;;;2.21;76.64;94170.94;4830567;29;20129;-45
2021/12/08 11:03:45;;;;;;;14.68;5.13;;;;;;;1.17;80.02;94170.19;4831265;29;20137;-46
2021/12/08 11:06:15;;;;;;;7.88;5.28;;;;;;;1.55;80.22;94172.13;4830920;29;20054;-47
2021/12/08 11:08:45;;;;;;;10.30;5.15;;;;;;;1.10;79.71;94169.84;4836699;29;20050;-47
2021/12/08 11:11:24;;;;;;;7.95;5.35;;;;;;;1.36;80.28;94172.47;4833376;29;20470;-48
2021/12/08 11:14:01;;;;;;;10.25;5.03;;;;;;;0.67;81.12;94165.34;4821384;29;20058;-49
2021/12/08 11:16:29;;;;;;;9.57;5.75;;;;;;;1.65;78.70;94184.34;4828776;29;20121;-50
2021/12/08 11:19:14;;;;;;;14.30;5.10;;;;;;;0.93;80.53;94172.53;4836068;29;20050;-49
2021/12/08 11:21:48;;;;;;;8.38;4.82;;;;;;;1.44;80.60;94176.25;4838012;29;20412;-49
2021/12/08 11:24:32;;;;;;;9.68;5.50;;;;;;;1.59;78.43;94174.94;4835902;29;20524;-46
2021/12/08 11:27:03;;;;;;;10.23;4.93;;;;;;;1.19;80.52;94148.53;4827352;29;20513;-49
2021/12/08 11:29:35;;;;;;;7.72;4.53;;;;;;;1.54;80.03;94146.59;4815952;29;20061;-50
2021/12/08 11:32:05;;;;;;;11.20;4.50;;;;;;;1.26;79.08;94143.50;4835477;29;20082;-46
2021/12/08 11:34:37;;;;;;;11.90;4.85;;;;;;;1.67;79.15;94136.03;4834943;29;20050;-47
2021/12/08 11:37:14;;;;;;;8.43;4.70;;;;;;;2.07;77.83;94136.47;4829999;29;20054;-49
2021/12/08 11:39:48;;;;;;;7.57;4.75;;;;;;;1.78;78.93;94129.25;4831984;29;20042;-48
2021/12/08 11:42:18;;;;;;;7.47;4.65;;;;;;;1.71;79.62;94136.97;4832147;29;20095;-48
2021/12/08 11:44:49;;;;;;;10.07;5.00;;;;;;;2.24;77.68;94133.75;4831177;29;20410;-47
2021/12/08 11:47:22;;;;;;;6.85;4.50;;;;;;;2.07;77.86;94134.59;4842054;29;20038;-46
2021/12/08 11:49:55;;;;;;;8.43;4.95;;;;;;;2.16;78.30;94137.22;4842947;29;21663;-46
2021/12/08 11:52:35;;;;;;;10.38;5.03;;;;;;;1.38;80.92;94126.88;4826274;29;20098;-47
2021/12/08 11:55:12;;;;;;;8.63;4.90;;;;;;;1.06;82.60;94133.53;4846748;24;20776;-41
2021/12/08 11:57:51;;;;;;;9.20;4.88;;;;;;;1.81;80.17;94139.28;4838867;29;20118;-41
2021/12/08 12:00:48;;;;;;;7.40;4.47;;;;;;;0.79;83.08;94116.03;4840781;29;20462;-41
2021/12/08 12:03:17;;;;;;;8.00;4.40;;;;;;;0.99;83.59;94118.03;4843431;29;20049;-42
2021/12/08 12:05:47;;;;;;;9.40;4.72;;;;;;;0.67;84.42;94111.31;4830124;29;20074;-42
2021/12/08 12:08:17;;;;;;;14.85;4.68;;;;;;;0.78;85.00;94109.13;4826742;29;20073;-40
2021/12/08 12:10:47;;;;;;;9.32;4.43;;;;;;;1.46;81.98;94103.97;4840371;29;20118;-40
2021/12/08 12:13:14;;;;;;;9.60;4.78;;;;;;;1.86;80.49;94128.44;4832544;29;20480;-41
2021/12/08 12:15:47;;;;;;;8.38;4.85;;;;;;;1.37;81.29;94114.66;4825073;29;20130;-46
2021/12/08 12:18:17;;;;;;;8.40;5.05;;;;;;;1.55;81.72;94134.81;4829772;29;20053;-42
2021/12/08 12:20:48;;;;;;;8.25;5.07;;;;;;;1.69;80.91;94131.97;4831731;29;20161;-42
2021/12/08 12:23:33;;;;;;;8.82;5.22;;;;;;;1.57;80.95;94124.63;4842477;29;20054;-42
2021/12/08 12:26:03;;;;;;;7.55;4.88;;;;;;;1.79;81.04;94106.84;4840695;29;20058;-44
2021/12/08 12:28:49;;;;;;;8.50;5.10;;;;;;;1.96;80.32;94104.06;4831313;29;20271;-43
2021/12/08 12:31:46;;;;;;;9.10;5.18;;;;;;;1.87;80.34;94114.00;4836238;29;20054;-43
2021/12/08 12:34:26;;;;;;;9.27;5.05;;;;;;;1.98;79.99;94119.75;4825911;29;20520;-42
2021/12/08 12:36:54;;;;;;;9.35;5.38;;;;;;;2.03;79.73;94128.34;4826526;29;20118;-44
2021/12/08 12:39:27;;;;;;;11.57;5.47;;;;;;;2.01;80.11;94106.53;4834260;29;20054;-42
2021/12/08 12:42:14;;;;;;;10.00;5.67;;;;;;;2.14;79.87;94114.63;4829102;29;20049;-45
2021/12/08 12:45:02;;;;;;;8.07;5.70;;;;;;;1.95;80.08;94115.84;4827976;29;20053;-43
2021/12/08 12:47:30;;;;;;;8.45;5.75;;;;;;;1.87;80.74;94136.09;4846159;29;20087;-46
2021/12/08 12:50:03;;;;;;;8.85;5.18;;;;;;;1.81;81.08;94132.06;4837101;29;20428;-46
2021/12/08 12:52:41;;;;;;;9.68;5.57;;;;;;;1.88;80.81;94120.88;4836415;29;20076;-44
2021/12/08 12:55:17;;;;;;;9.13;5.13;;;;;;;2.09;80.03;94095.03;4830501;29;20476;-44
2021/12/08 12:58:18;;;;;;;8.00;4.90;;;;;;;2.19;79.76;94061.88;4835148;29;20037;-45
2021/12/08 13:01:09;;;;;;;8.95;5.50;;;;;;;2.07;80.57;94057.22;4831865;29;20109;-44